• Join FlightAware (Why Join?)
  • Login
  • US Flag 
03:52PM EDT


 

Airport Tracker/Info


-or-


 

Live Flight TrackerFlight Track Log ✈ EGF4383 ✈ 06-May-2013 ✈ KCHO - KORD

Flight Track Log - Related Links

Times and Time Zones

All times are in EDT time to prevent confusion due to time zone crossing. See the EGF4383 flight status page for this flight to view local times or setup timezone preferences in your user account.

Time Position Orientation Groundspeed Altitude Reporting Facility
EDT Latitude Longitude Course Direction KTS MPH feet Rate Location/Type
05:07PM 38.2189 -78.6879 302° West  Level FlightAware Approximate
05:08PM 38.2605 -78.8077 299° West  Level FlightAware Approximate
05:08PM 38.2706 -78.6253 303° West 294 338 7,600  Level Washington Center
05:09PM 38.3103 -78.9246 298° West  Level FlightAware Approximate
05:09PM 38.3056 -78.7219 295° West 300 345 9,000  Level Washington Center
05:10PM 38.3593 -79.0421 298° West  Level FlightAware Approximate
05:11PM 38.3797 -78.8825 298° West  Level Estimated
05:11PM 38.4052 -79.1616 294° West  Level FlightAware Approximate
05:11PM 38.3850 -78.9478 298° West 330 380 11,500  Level Washington Center
05:12PM 38.4481 -79.2831 294° West  Level FlightAware Approximate
05:12PM 38.4253 -79.0689 293° West 356 410 12,900  Level Washington Center
05:13PM 38.4905 -79.4049 293° West  Level FlightAware Approximate
05:13PM 38.4697 -79.1931 295° West 370 426 14,400  Level Washington Center
05:14PM 38.5432 -79.5197 303° West  Level FlightAware Approximate
05:14PM 38.5097 -79.3089 294° West 388 447 15,900  Level Washington Center
05:16PM 38.5318 -79.4969 303° West  Level FlightAware Approximate
05:17PM 38.6431 -79.7011 303° West 381 438 20,500  Level Washington Center
05:18PM 38.6883 -79.8367 293° West 394 453 21,000 240 Climbing Washington Center
05:20PM 38.7266 -80.0164 297° West  Level FlightAware Approximate
05:20PM 38.8686 -80.0417 297° West 421 484 21,300  Level Washington Center
05:22PM 38.9398 -80.2005 297° West  Level Estimated
05:22PM 38.9986 -80.3372 297° West 432 497 24,000  Level Indianapolis Center
05:23PM 38.8365 -80.3396 303° West  Level FlightAware Approximate
05:24PM 39.0459 -80.4751 303° West  Level FlightAware Approximate
05:26PM 39.1800 -80.7639 301° West 451 519 26,000  Level Indianapolis Center
05:27PM 39.2322 -80.8825 299° West  Level Estimated
05:28PM 39.3086 -81.0592 299° West 426 490 29,100  Level Indianapolis Center
05:29PM 39.3661 -81.1928 299° West 427 491 30,500 1,260 Climbing Indianapolis Center
05:30PM 39.4222 -81.3242 299° West 422 486 31,800 1,080 Climbing Indianapolis Center
05:31PM 39.4082 -81.3070 301° West  Level FlightAware Approximate
05:32PM 39.4892 -81.6181 287° West 432 497 34,000  Level Indianapolis Center
05:33PM 39.5233 -81.7647 287° West 428 493 35,400 960 Climbing Indianapolis Center
05:34PM 39.5814 -81.9356 294° West 441 507 36,000 240 Climbing Indianapolis Center
05:35PM 39.6483 -82.0758 302° West 457 526 36,000  Level Indianapolis Center
05:37PM 39.7794 -82.3706 300° West 478 550 36,000 -240 Level Indianapolis Center
05:39PM 39.8762 -82.5630 303° West  Level FlightAware Approximate
05:40PM 39.9892 -82.8425 298° West 477 549 34,900  Level Indianapolis Center
05:42PM 40.0699 -83.0318 299° West  Level Estimated
05:42PM 40.1203 -83.1436 299° West 477 549 31,900  Level Indianapolis Center
05:44PM 40.2015 -83.3259 299° West  Level FlightAware Approximate
05:44PM 40.2731 -83.4969 299° West 469 540 30,000  Level Chicago Center
05:45PM 40.3381 -83.6453 300° West 471 542 30,000  Level Chicago Center
05:46PM 40.2757 -83.3961 298° West  Level FlightAware Approximate
05:47PM 40.4128 -83.8256 299° West 470 541 30,000  Level Chicago Center
05:48PM 40.4761 -83.9756 299° West 471 542 30,000  Level Chicago Center
05:48PM 40.5142 -84.0639 300° West 469 540 30,000  Level Indianapolis Center
05:49PM 40.5778 -84.2156 299° West 471 542 30,000  Level Indianapolis Center
05:50PM 40.6408 -84.3653 299° West 466 536 30,000  Level Indianapolis Center
05:51PM 40.7144 -84.5406 299° West 465 535 30,000  Level Indianapolis Center
05:52PM 40.7275 -84.5733 298° West 467 537 30,000  Level Chicago Center
05:53PM 40.8378 -84.8422 299° West 462 532 30,000  Level Indianapolis Center
05:54PM 40.8614 -84.8992 299° West 457 526 30,000  Level Chicago Center
05:55PM 40.9603 -85.1383 299° West 449 517 30,000 -240 Level Indianapolis Center
05:57PM 41.0203 -85.2618 312° West  Level FlightAware Approximate
05:58PM 41.0689 -85.4333 312° West 450 518 29,300  Level Indianapolis Center
05:59PM 41.1381 -85.6281 295° West 429 494 28,000 -1,140 Descending Chicago Center
06:00PM 41.1972 -85.7936 295° West 415 478 26,600 -1,200 Descending Chicago Center
06:01PM 41.2464 -85.9314 295° West 412 474 25,500 -600 Descending Chicago Center
06:03PM 41.3169 -86.1622 292° West 426 490 25,000 -300 Descending Indianapolis Center
06:03PM 41.3322 -86.2267 288° West 437 503 25,000  Level Chicago Center
06:04PM 41.3706 -86.3839 288° West 444 511 25,000 -2,160 Level Chicago Center
06:06PM 41.3589 -86.5908 301° West  Level FlightAware Approximate
06:08PM 41.5197 -86.9878 270° West 383 441 13,900  Level Chicago Center
06:09PM 41.5508 -87.1161 288° West 371 427 12,100 -960 Descending Chicago Center
06:10PM 41.5828 -87.2458 288° West 370 426 12,000 -600 Descending Chicago Center
06:11PM 41.6303 -87.3922 294° West 363 418 10,900 -660 Descending Chicago Center
06:13PM 41.9833 -87.0487 270° West  Level FlightAware Approximate
06:13PM 41.7197 -87.6211 298° West 355 409 10,100  Level Chicago Center
06:14PM 41.9834 -87.2010 270° West  Level FlightAware Approximate
06:14PM 41.7831 -87.7036 316° Northwest 321 369 9,600  Level Chicago Center
06:16PM 41.8233 -87.7869 303° West 290 334 7,700 -2,340 Descending Chicago Center
06:17PM 41.8039 -87.9061 258° West 279 321 4,800 -2,280 Descending Chicago Center
06:18PM 41.8242 -87.9956 287° West 273 314 3,000 -900 Descending Chicago Center
06:19PM 41.8628 -88.0058 349° North 222 255 3,000 -420 Level Chicago Center
06:20PM 41.8958 -87.9689 40° Northeast 180 207 2,200 -840 Descending Chicago Center
06:20PM 41.9167 -87.9333 52° Northeast 133 153 1,600 -780 Descending Chicago TRACON
06:21PM 41.9500 -87.9000 37° Northeast 132 152 900 -720 Descending Chicago TRACON